sensor_id;sensor_type;location;lat;lon;timestamp;P1;durP1;ratioP1;P2;durP2;ratioP2
19347;SDS011;9810;52.480;9.806;2023-04-15T00:00:26;3.87;;;3.03;;
19347;SDS011;9810;52.480;9.806;2023-04-15T00:02:54;3.53;;;2.93;;
19347;SDS011;9810;52.480;9.806;2023-04-15T00:05:21;4.93;;;3.27;;
19347;SDS011;9810;52.480;9.806;2023-04-15T00:07:49;5.47;;;3.63;;
19347;SDS011;9810;52.480;9.806;2023-04-15T00:10:16;4.50;;;3.37;;
19347;SDS011;9810;52.480;9.806;2023-04-15T00:12:43;3.77;;;3.20;;
19347;SDS011;9810;52.480;9.806;2023-04-15T00:15:12;6.70;;;3.80;;
19347;SDS011;9810;52.480;9.806;2023-04-15T00:17:40;6.73;;;3.47;;
19347;SDS011;9810;52.480;9.806;2023-04-15T00:20:08;4.40;;;3.77;;
19347;SDS011;9810;52.480;9.806;2023-04-15T00:22:35;6.23;;;4.13;;
19347;SDS011;9810;52.480;9.806;2023-04-15T00:25:03;7.90;;;3.40;;
19347;SDS011;9810;52.480;9.806;2023-04-15T00:27:31;5.23;;;3.73;;
19347;SDS011;9810;52.480;9.806;2023-04-15T00:29:58;5.93;;;4.03;;
19347;SDS011;9810;52.480;9.806;2023-04-15T00:32:27;5.53;;;3.70;;
19347;SDS011;9810;52.480;9.806;2023-04-15T00:34:55;5.53;;;3.80;;
19347;SDS011;9810;52.480;9.806;2023-04-15T00:37:22;5.57;;;4.40;;
19347;SDS011;9810;52.480;9.806;2023-04-15T00:39:49;8.97;;;4.60;;
19347;SDS011;9810;52.480;9.806;2023-04-15T00:42:16;5.00;;;3.80;;
19347;SDS011;9810;52.480;9.806;2023-04-15T00:44:45;6.27;;;4.37;;
19347;SDS011;9810;52.480;9.806;2023-04-15T00:47:12;7.67;;;4.40;;
19347;SDS011;9810;52.480;9.806;2023-04-15T00:49:43;8.30;;;5.17;;
19347;SDS011;9810;52.480;9.806;2023-04-15T00:52:10;6.77;;;4.97;;
19347;SDS011;9810;52.480;9.806;2023-04-15T00:54:38;10.47;;;5.97;;
19347;SDS011;9810;52.480;9.806;2023-04-15T00:57:05;6.57;;;5.43;;
19347;SDS011;9810;52.480;9.806;2023-04-15T00:59:34;7.17;;;5.73;;
19347;SDS011;9810;52.480;9.806;2023-04-15T01:02:02;9.77;;;5.53;;
19347;SDS011;9810;52.480;9.806;2023-04-15T01:04:30;9.27;;;5.60;;
19347;SDS011;9810;52.480;9.806;2023-04-15T01:07:00;7.90;;;5.67;;
19347;SDS011;9810;52.480;9.806;2023-04-15T01:09:27;13.27;;;6.37;;
19347;SDS011;9810;52.480;9.806;2023-04-15T01:11:54;8.77;;;6.37;;
19347;SDS011;9810;52.480;9.806;2023-04-15T01:14:22;9.87;;;6.67;;
19347;SDS011;9810;52.480;9.806;2023-04-15T01:16:51;7.83;;;5.27;;
19347;SDS011;9810;52.480;9.806;2023-04-15T01:19:18;10.73;;;6.50;;
19347;SDS011;9810;52.480;9.806;2023-04-15T01:21:46;9.53;;;6.20;;
19347;SDS011;9810;52.480;9.806;2023-04-15T01:24:15;10.33;;;6.60;;
19347;SDS011;9810;52.480;9.806;2023-04-15T01:26:45;11.00;;;6.57;;
19347;SDS011;9810;52.480;9.806;2023-04-15T01:29:14;13.87;;;6.73;;
19347;SDS011;9810;52.480;9.806;2023-04-15T01:31:47;11.98;;;8.15;;
19347;SDS011;9810;52.480;9.806;2023-04-15T01:34:16;11.13;;;7.37;;
19347;SDS011;9810;52.480;9.806;2023-04-15T01:36:44;9.63;;;6.53;;
19347;SDS011;9810;52.480;9.806;2023-04-15T01:39:11;11.03;;;7.40;;
19347;SDS011;9810;52.480;9.806;2023-04-15T01:41:38;11.60;;;7.20;;
19347;SDS011;9810;52.480;9.806;2023-04-15T01:44:08;12.93;;;7.30;;
19347;SDS011;9810;52.480;9.806;2023-04-15T01:46:35;14.37;;;7.90;;
19347;SDS011;9810;52.480;9.806;2023-04-15T01:49:03;12.97;;;8.00;;
19347;SDS011;9810;52.480;9.806;2023-04-15T01:51:30;10.47;;;7.67;;
19347;SDS011;9810;52.480;9.806;2023-04-15T01:53:58;11.77;;;8.17;;
19347;SDS011;9810;52.480;9.806;2023-04-15T01:56:25;13.63;;;7.90;;
19347;SDS011;9810;52.480;9.806;2023-04-15T01:58:52;15.77;;;8.30;;
19347;SDS011;9810;52.480;9.806;2023-04-15T02:01:21;13.97;;;7.60;;
19347;SDS011;9810;52.480;9.806;2023-04-15T02:03:49;12.80;;;7.83;;
19347;SDS011;9810;52.480;9.806;2023-04-15T02:06:16;17.27;;;7.50;;
19347;SDS011;9810;52.480;9.806;2023-04-15T02:08:43;12.53;;;8.57;;
19347;SDS011;9810;52.480;9.806;2023-04-15T02:11:10;12.37;;;7.87;;
19347;SDS011;9810;52.480;9.806;2023-04-15T02:13:38;11.03;;;7.57;;
19347;SDS011;9810;52.480;9.806;2023-04-15T02:16:14;15.63;;;8.20;;
19347;SDS011;9810;52.480;9.806;2023-04-15T02:18:44;12.53;;;7.97;;
19347;SDS011;9810;52.480;9.806;2023-04-15T02:21:12;13.60;;;8.83;;
19347;SDS011;9810;52.480;9.806;2023-04-15T02:23:39;15.03;;;9.13;;
19347;SDS011;9810;52.480;9.806;2023-04-15T02:26:08;15.23;;;8.93;;
19347;SDS011;9810;52.480;9.806;2023-04-15T02:28:35;13.13;;;8.57;;
19347;SDS011;9810;52.480;9.806;2023-04-15T02:31:04;12.63;;;8.67;;
19347;SDS011;9810;52.480;9.806;2023-04-15T02:33:32;11.97;;;7.93;;
19347;SDS011;9810;52.480;9.806;2023-04-15T02:36:01;12.50;;;8.67;;
19347;SDS011;9810;52.480;9.806;2023-04-15T02:38:28;15.53;;;10.00;;
19347;SDS011;9810;52.480;9.806;2023-04-15T02:40:56;14.00;;;8.87;;
19347;SDS011;9810;52.480;9.806;2023-04-15T02:43:23;13.70;;;9.20;;
19347;SDS011;9810;52.480;9.806;2023-04-15T02:45:50;16.07;;;9.83;;
19347;SDS011;9810;52.480;9.806;2023-04-15T02:48:17;13.83;;;9.27;;
19347;SDS011;9810;52.480;9.806;2023-04-15T02:50:45;14.93;;;9.80;;
19347;SDS011;9810;52.480;9.806;2023-04-15T02:53:14;14.90;;;9.07;;
19347;SDS011;9810;52.480;9.806;2023-04-15T02:55:41;15.23;;;9.60;;
19347;SDS011;9810;52.480;9.806;2023-04-15T02:58:08;18.07;;;10.80;;
19347;SDS011;9810;52.480;9.806;2023-04-15T03:00:36;17.10;;;10.77;;
19347;SDS011;9810;52.480;9.806;2023-04-15T03:03:04;23.77;;;14.27;;
19347;SDS011;9810;52.480;9.806;2023-04-15T03:05:31;20.13;;;12.33;;
19347;SDS011;9810;52.480;9.806;2023-04-15T03:07:58;19.77;;;11.83;;
19347;SDS011;9810;52.480;9.806;2023-04-15T03:10:28;17.60;;;11.67;;
19347;SDS011;9810;52.480;9.806;2023-04-15T03:12:56;21.33;;;12.27;;
19347;SDS011;9810;52.480;9.806;2023-04-15T03:15:23;17.97;;;11.27;;
19347;SDS011;9810;52.480;9.806;2023-04-15T03:17:51;21.87;;;13.07;;
19347;SDS011;9810;52.480;9.806;2023-04-15T03:20:18;18.67;;;12.53;;
19347;SDS011;9810;52.480;9.806;2023-04-15T03:22:45;23.10;;;12.90;;
19347;SDS011;9810;52.480;9.806;2023-04-15T03:25:13;17.57;;;11.07;;
19347;SDS011;9810;52.480;9.806;2023-04-15T03:27:42;27.10;;;12.90;;
19347;SDS011;9810;52.480;9.806;2023-04-15T03:30:09;19.47;;;12.53;;
19347;SDS011;9810;52.480;9.806;2023-04-15T03:32:37;20.80;;;12.83;;
19347;SDS011;9810;52.480;9.806;2023-04-15T03:35:04;23.93;;;14.03;;
19347;SDS011;9810;52.480;9.806;2023-04-15T03:37:32;22.73;;;13.57;;
19347;SDS011;9810;52.480;9.806;2023-04-15T03:40:00;20.33;;;11.70;;
19347;SDS011;9810;52.480;9.806;2023-04-15T03:42:27;23.13;;;14.17;;
19347;SDS011;9810;52.480;9.806;2023-04-15T03:44:56;21.87;;;13.70;;
19347;SDS011;9810;52.480;9.806;2023-04-15T03:47:23;21.30;;;13.40;;
19347;SDS011;9810;52.480;9.806;2023-04-15T03:49:51;22.70;;;13.93;;
19347;SDS011;9810;52.480;9.806;2023-04-15T03:52:18;21.27;;;13.37;;
19347;SDS011;9810;52.480;9.806;2023-04-15T03:54:45;24.77;;;14.17;;
19347;SDS011;9810;52.480;9.806;2023-04-15T03:57:12;26.10;;;15.50;;
19347;SDS011;9810;52.480;9.806;2023-04-15T03:59:40;24.40;;;14.40;;
19347;SDS011;9810;52.480;9.806;2023-04-15T04:02:09;22.27;;;14.60;;
19347;SDS011;9810;52.480;9.806;2023-04-15T04:04:36;27.43;;;15.77;;
19347;SDS011;9810;52.480;9.806;2023-04-15T04:07:04;28.23;;;15.50;;
19347;SDS011;9810;52.480;9.806;2023-04-15T04:09:31;26.40;;;15.37;;
19347;SDS011;9810;52.480;9.806;2023-04-15T04:11:58;27.00;;;14.37;;
19347;SDS011;9810;52.480;9.806;2023-04-15T04:14:26;29.27;;;15.20;;
19347;SDS011;9810;52.480;9.806;2023-04-15T04:16:54;26.60;;;14.83;;
19347;SDS011;9810;52.480;9.806;2023-04-15T04:19:23;23.77;;;14.87;;
19347;SDS011;9810;52.480;9.806;2023-04-15T04:21:51;27.80;;;15.43;;
19347;SDS011;9810;52.480;9.806;2023-04-15T04:24:18;31.20;;;14.93;;
19347;SDS011;9810;52.480;9.806;2023-04-15T04:26:45;23.27;;;13.20;;
19347;SDS011;9810;52.480;9.806;2023-04-15T04:29:13;27.80;;;14.63;;
19347;SDS011;9810;52.480;9.806;2023-04-15T04:31:41;27.17;;;16.57;;
19347;SDS011;9810;52.480;9.806;2023-04-15T04:34:08;23.53;;;14.67;;
19347;SDS011;9810;52.480;9.806;2023-04-15T04:36:37;31.93;;;16.13;;
19347;SDS011;9810;52.480;9.806;2023-04-15T04:39:04;22.83;;;14.00;;
19347;SDS011;9810;52.480;9.806;2023-04-15T04:41:32;23.33;;;14.73;;
19347;SDS011;9810;52.480;9.806;2023-04-15T04:43:59;26.30;;;14.00;;
19347;SDS011;9810;52.480;9.806;2023-04-15T04:46:26;21.80;;;13.43;;
19347;SDS011;9810;52.480;9.806;2023-04-15T04:48:54;22.47;;;13.93;;
19347;SDS011;9810;52.480;9.806;2023-04-15T04:51:21;27.97;;;15.43;;
19347;SDS011;9810;52.480;9.806;2023-04-15T04:53:50;24.47;;;14.07;;
19347;SDS011;9810;52.480;9.806;2023-04-15T04:56:17;23.90;;;15.10;;
19347;SDS011;9810;52.480;9.806;2023-04-15T04:58:45;23.73;;;14.17;;
19347;SDS011;9810;52.480;9.806;2023-04-15T05:01:12;29.70;;;14.87;;
19347;SDS011;9810;52.480;9.806;2023-04-15T05:03:39;24.47;;;14.53;;
19347;SDS011;9810;52.480;9.806;2023-04-15T05:06:07;25.90;;;15.37;;
19347;SDS011;9810;52.480;9.806;2023-04-15T05:08:34;29.20;;;15.70;;
19347;SDS011;9810;52.480;9.806;2023-04-15T05:11:03;26.47;;;14.77;;
19347;SDS011;9810;52.480;9.806;2023-04-15T05:13:31;23.93;;;14.60;;
19347;SDS011;9810;52.480;9.806;2023-04-15T05:15:58;26.87;;;15.00;;
19347;SDS011;9810;52.480;9.806;2023-04-15T05:18:26;26.63;;;15.53;;
19347;SDS011;9810;52.480;9.806;2023-04-15T05:20:53;24.27;;;14.20;;
19347;SDS011;9810;52.480;9.806;2023-04-15T05:23:20;22.80;;;14.33;;
19347;SDS011;9810;52.480;9.806;2023-04-15T05:25:47;24.70;;;14.17;;
19347;SDS011;9810;52.480;9.806;2023-04-15T05:28:17;20.03;;;13.03;;
19347;SDS011;9810;52.480;9.806;2023-04-15T05:30:44;22.87;;;13.07;;
19347;SDS011;9810;52.480;9.806;2023-04-15T05:33:12;24.77;;;14.77;;
19347;SDS011;9810;52.480;9.806;2023-04-15T05:35:39;20.37;;;13.47;;
19347;SDS011;9810;52.480;9.806;2023-04-15T05:38:06;19.80;;;13.20;;
19347;SDS011;9810;52.480;9.806;2023-04-15T05:40:34;24.23;;;13.63;;
19347;SDS011;9810;52.480;9.806;2023-04-15T05:43:01;20.03;;;12.37;;
19347;SDS011;9810;52.480;9.806;2023-04-15T05:45:30;24.23;;;15.68;;
19347;SDS011;9810;52.480;9.806;2023-04-15T05:47:57;22.67;;;12.97;;
19347;SDS011;9810;52.480;9.806;2023-04-15T05:50:25;20.70;;;12.27;;
19347;SDS011;9810;52.480;9.806;2023-04-15T05:52:52;18.77;;;12.20;;
19347;SDS011;9810;52.480;9.806;2023-04-15T05:55:20;20.40;;;12.10;;
19347;SDS011;9810;52.480;9.806;2023-04-15T05:57:47;19.53;;;11.83;;
19347;SDS011;9810;52.480;9.806;2023-04-15T06:00:15;18.17;;;11.17;;
19347;SDS011;9810;52.480;9.806;2023-04-15T06:02:44;19.57;;;10.70;;
19347;SDS011;9810;52.480;9.806;2023-04-15T06:05:11;18.73;;;11.73;;
19347;SDS011;9810;52.480;9.806;2023-04-15T06:07:38;15.87;;;10.37;;
19347;SDS011;9810;52.480;9.806;2023-04-15T06:10:08;18.53;;;11.00;;
19347;SDS011;9810;52.480;9.806;2023-04-15T06:12:35;15.33;;;9.20;;
19347;SDS011;9810;52.480;9.806;2023-04-15T06:15:03;14.27;;;9.40;;
19347;SDS011;9810;52.480;9.806;2023-04-15T06:17:34;14.33;;;8.73;;
19347;SDS011;9810;52.480;9.806;2023-04-15T06:20:03;11.87;;;8.03;;
19347;SDS011;9810;52.480;9.806;2023-04-15T06:22:32;13.80;;;8.93;;
19347;SDS011;9810;52.480;9.806;2023-04-15T06:24:59;12.00;;;8.07;;
19347;SDS011;9810;52.480;9.806;2023-04-15T06:27:27;15.10;;;8.40;;
19347;SDS011;9810;52.480;9.806;2023-04-15T06:29:54;12.47;;;8.13;;
19347;SDS011;9810;52.480;9.806;2023-04-15T06:32:21;12.27;;;8.87;;
19347;SDS011;9810;52.480;9.806;2023-04-15T06:34:49;14.10;;;8.43;;
19347;SDS011;9810;52.480;9.806;2023-04-15T06:37:18;12.73;;;8.07;;
19347;SDS011;9810;52.480;9.806;2023-04-15T06:39:45;12.40;;;7.90;;
19347;SDS011;9810;52.480;9.806;2023-04-15T06:42:12;12.07;;;7.67;;
19347;SDS011;9810;52.480;9.806;2023-04-15T06:44:40;10.80;;;7.40;;
19347;SDS011;9810;52.480;9.806;2023-04-15T06:47:07;13.47;;;8.03;;
19347;SDS011;9810;52.480;9.806;2023-04-15T06:49:37;11.63;;;7.60;;
19347;SDS011;9810;52.480;9.806;2023-04-15T06:52:04;12.60;;;7.70;;
19347;SDS011;9810;52.480;9.806;2023-04-15T06:54:33;9.97;;;7.30;;
19347;SDS011;9810;52.480;9.806;2023-04-15T06:57:01;12.32;;;7.90;;
19347;SDS011;9810;52.480;9.806;2023-04-15T06:59:28;10.13;;;7.30;;
19347;SDS011;9810;52.480;9.806;2023-04-15T07:01:55;10.27;;;6.83;;
19347;SDS011;9810;52.480;9.806;2023-04-15T07:04:23;9.13;;;6.40;;
19347;SDS011;9810;52.480;9.806;2023-04-15T07:06:50;10.63;;;8.00;;
19347;SDS011;9810;52.480;9.806;2023-04-15T07:09:18;9.80;;;6.50;;
19347;SDS011;9810;52.480;9.806;2023-04-15T07:11:47;12.17;;;7.13;;
19347;SDS011;9810;52.480;9.806;2023-04-15T07:14:14;9.50;;;6.63;;
19347;SDS011;9810;52.480;9.806;2023-04-15T07:16:41;9.70;;;6.03;;
19347;SDS011;9810;52.480;9.806;2023-04-15T07:19:09;8.43;;;5.60;;
19347;SDS011;9810;52.480;9.806;2023-04-15T07:21:36;5.93;;;5.23;;
19347;SDS011;9810;52.480;9.806;2023-04-15T07:24:03;7.80;;;5.23;;
19347;SDS011;9810;52.480;9.806;2023-04-15T07:26:31;6.47;;;4.97;;
19347;SDS011;9810;52.480;9.806;2023-04-15T07:29:00;10.73;;;5.40;;
19347;SDS011;9810;52.480;9.806;2023-04-15T07:31:27;7.13;;;5.27;;
19347;SDS011;9810;52.480;9.806;2023-04-15T07:33:55;6.90;;;5.00;;
19347;SDS011;9810;52.480;9.806;2023-04-15T07:36:22;8.00;;;4.97;;
19347;SDS011;9810;52.480;9.806;2023-04-15T07:38:49;6.60;;;4.53;;
19347;SDS011;9810;52.480;9.806;2023-04-15T07:41:17;7.47;;;5.47;;
19347;SDS011;9810;52.480;9.806;2023-04-15T07:43:45;7.50;;;5.03;;
19347;SDS011;9810;52.480;9.806;2023-04-15T07:46:14;6.77;;;4.90;;
19347;SDS011;9810;52.480;9.806;2023-04-15T07:48:41;5.80;;;4.43;;
19347;SDS011;9810;52.480;9.806;2023-04-15T07:51:09;5.50;;;4.13;;
19347;SDS011;9810;52.480;9.806;2023-04-15T07:53:37;6.80;;;4.57;;
19347;SDS011;9810;52.480;9.806;2023-04-15T07:56:04;5.07;;;3.73;;
19347;SDS011;9810;52.480;9.806;2023-04-15T07:58:31;5.83;;;4.43;;
19347;SDS011;9810;52.480;9.806;2023-04-15T08:00:59;5.77;;;4.40;;
19347;SDS011;9810;52.480;9.806;2023-04-15T08:03:28;4.60;;;3.63;;
19347;SDS011;9810;52.480;9.806;2023-04-15T08:05:56;4.67;;;3.93;;
19347;SDS011;9810;52.480;9.806;2023-04-15T08:08:23;5.23;;;3.67;;
19347;SDS011;9810;52.480;9.806;2023-04-15T08:10:51;3.67;;;3.20;;
19347;SDS011;9810;52.480;9.806;2023-04-15T08:13:18;4.57;;;3.37;;
19347;SDS011;9810;52.480;9.806;2023-04-15T08:15:52;3.73;;;3.10;;
19347;SDS011;9810;52.480;9.806;2023-04-15T08:18:36;5.90;;;3.83;;
19347;SDS011;9810;52.480;9.806;2023-04-15T08:21:03;3.77;;;3.03;;
19347;SDS011;9810;52.480;9.806;2023-04-15T08:23:31;4.30;;;3.37;;
19347;SDS011;9810;52.480;9.806;2023-04-15T08:25:58;3.83;;;3.13;;
19347;SDS011;9810;52.480;9.806;2023-04-15T08:28:26;3.60;;;2.43;;
19347;SDS011;9810;52.480;9.806;2023-04-15T08:30:53;4.57;;;3.47;;
19347;SDS011;9810;52.480;9.806;2023-04-15T08:33:22;3.57;;;3.00;;
19347;SDS011;9810;52.480;9.806;2023-04-15T08:35:51;4.17;;;3.10;;
19347;SDS011;9810;52.480;9.806;2023-04-15T08:38:18;4.00;;;3.00;;
19347;SDS011;9810;52.480;9.806;2023-04-15T08:40:45;4.77;;;3.37;;
19347;SDS011;9810;52.480;9.806;2023-04-15T08:43:14;3.63;;;2.97;;
19347;SDS011;9810;52.480;9.806;2023-04-15T08:45:46;3.97;;;2.70;;
19347;SDS011;9810;52.480;9.806;2023-04-15T08:48:15;3.17;;;2.70;;
19347;SDS011;9810;52.480;9.806;2023-04-15T08:50:44;4.80;;;3.37;;
19347;SDS011;9810;52.480;9.806;2023-04-15T08:53:13;4.50;;;3.40;;
19347;SDS011;9810;52.480;9.806;2023-04-15T08:55:41;3.83;;;3.20;;
19347;SDS011;9810;52.480;9.806;2023-04-15T08:58:10;4.07;;;3.60;;
19347;SDS011;9810;52.480;9.806;2023-04-15T09:00:38;5.00;;;3.47;;
19347;SDS011;9810;52.480;9.806;2023-04-15T09:03:06;5.30;;;3.67;;
19347;SDS011;9810;52.480;9.806;2023-04-15T09:05:34;5.63;;;3.40;;
19347;SDS011;9810;52.480;9.806;2023-04-15T09:08:02;4.83;;;3.60;;
19347;SDS011;9810;52.480;9.806;2023-04-15T09:10:32;5.80;;;4.07;;
19347;SDS011;9810;52.480;9.806;2023-04-15T09:13:00;6.20;;;4.33;;
19347;SDS011;9810;52.480;9.806;2023-04-15T09:15:28;7.13;;;4.20;;
19347;SDS011;9810;52.480;9.806;2023-04-15T09:17:58;6.73;;;4.70;;
19347;SDS011;9810;52.480;9.806;2023-04-15T09:20:25;7.97;;;4.83;;
19347;SDS011;9810;52.480;9.806;2023-04-15T09:22:53;6.43;;;4.57;;
19347;SDS011;9810;52.480;9.806;2023-04-15T09:25:27;7.23;;;5.13;;
19347;SDS011;9810;52.480;9.806;2023-04-15T09:27:57;10.73;;;5.73;;
19347;SDS011;9810;52.480;9.806;2023-04-15T09:30:26;8.77;;;5.43;;
19347;SDS011;9810;52.480;9.806;2023-04-15T09:32:55;9.33;;;5.73;;
19347;SDS011;9810;52.480;9.806;2023-04-15T09:35:24;10.00;;;6.33;;
19347;SDS011;9810;52.480;9.806;2023-04-15T09:37:53;9.97;;;6.10;;
19347;SDS011;9810;52.480;9.806;2023-04-15T09:40:32;10.23;;;6.80;;
19347;SDS011;9810;52.480;9.806;2023-04-15T09:43:02;10.30;;;7.00;;
19347;SDS011;9810;52.480;9.806;2023-04-15T09:45:31;9.80;;;6.67;;
19347;SDS011;9810;52.480;9.806;2023-04-15T09:48:13;11.00;;;7.20;;
19347;SDS011;9810;52.480;9.806;2023-04-15T09:50:41;13.67;;;8.13;;
19347;SDS011;9810;52.480;9.806;2023-04-15T09:53:09;15.57;;;8.30;;
19347;SDS011;9810;52.480;9.806;2023-04-15T09:55:37;14.00;;;8.33;;
19347;SDS011;9810;52.480;9.806;2023-04-15T09:58:08;15.33;;;10.17;;
19347;SDS011;9810;52.480;9.806;2023-04-15T10:00:44;19.77;;;11.50;;
19347;SDS011;9810;52.480;9.806;2023-04-15T10:03:14;20.87;;;12.30;;
19347;SDS011;9810;52.480;9.806;2023-04-15T10:05:44;23.13;;;12.80;;
19347;SDS011;9810;52.480;9.806;2023-04-15T10:08:13;28.63;;;15.07;;
19347;SDS011;9810;52.480;9.806;2023-04-15T10:10:43;21.67;;;12.07;;
19347;SDS011;9810;52.480;9.806;2023-04-15T10:13:13;36.47;;;17.60;;
19347;SDS011;9810;52.480;9.806;2023-04-15T10:15:44;35.23;;;15.27;;
19347;SDS011;9810;52.480;9.806;2023-04-15T10:18:15;32.83;;;16.93;;
19347;SDS011;9810;52.480;9.806;2023-04-15T10:20:45;35.53;;;16.33;;
19347;SDS011;9810;52.480;9.806;2023-04-15T10:23:14;28.07;;;15.90;;
19347;SDS011;9810;52.480;9.806;2023-04-15T10:25:41;27.53;;;15.93;;
19347;SDS011;9810;52.480;9.806;2023-04-15T10:28:09;23.10;;;13.50;;
19347;SDS011;9810;52.480;9.806;2023-04-15T10:30:38;26.13;;;14.50;;
19347;SDS011;9810;52.480;9.806;2023-04-15T10:33:06;25.70;;;14.93;;
19347;SDS011;9810;52.480;9.806;2023-04-15T10:35:35;31.73;;;16.57;;
19347;SDS011;9810;52.480;9.806;2023-04-15T10:38:14;26.77;;;14.87;;
19347;SDS011;9810;52.480;9.806;2023-04-15T10:41:10;32.23;;;15.80;;
19347;SDS011;9810;52.480;9.806;2023-04-15T10:43:39;31.40;;;16.93;;
19347;SDS011;9810;52.480;9.806;2023-04-15T10:46:15;35.30;;;16.83;;
19347;SDS011;9810;52.480;9.806;2023-04-15T10:48:48;33.73;;;16.73;;
19347;SDS011;9810;52.480;9.806;2023-04-15T10:51:25;34.17;;;18.40;;
19347;SDS011;9810;52.480;9.806;2023-04-15T10:53:58;32.63;;;17.10;;
19347;SDS011;9810;52.480;9.806;2023-04-15T10:56:27;33.50;;;17.33;;
19347;SDS011;9810;52.480;9.806;2023-04-15T10:58:57;35.57;;;18.53;;
19347;SDS011;9810;52.480;9.806;2023-04-15T11:07:39;39.07;;;21.33;;
19347;SDS011;9810;52.480;9.806;2023-04-15T11:13:21;42.70;;;21.17;;
19347;SDS011;9810;52.480;9.806;2023-04-15T11:15:56;40.83;;;20.27;;
19347;SDS011;9810;52.480;9.806;2023-04-15T11:18:33;41.83;;;20.90;;
19347;SDS011;9810;52.480;9.806;2023-04-15T11:21:02;42.67;;;20.77;;
19347;SDS011;9810;52.480;9.806;2023-04-15T11:23:33;41.90;;;21.20;;
19347;SDS011;9810;52.480;9.806;2023-04-15T11:26:02;43.20;;;21.27;;
19347;SDS011;9810;52.480;9.806;2023-04-15T11:28:33;35.73;;;20.40;;
19347;SDS011;9810;52.480;9.806;2023-04-15T11:31:08;42.07;;;22.47;;
19347;SDS011;9810;52.480;9.806;2023-04-15T11:33:43;43.13;;;22.10;;
19347;SDS011;9810;52.480;9.806;2023-04-15T11:36:11;41.93;;;22.13;;
19347;SDS011;9810;52.480;9.806;2023-04-15T11:38:41;41.57;;;22.20;;
19347;SDS011;9810;52.480;9.806;2023-04-15T11:41:09;47.00;;;23.57;;
19347;SDS011;9810;52.480;9.806;2023-04-15T11:43:36;43.70;;;22.57;;
19347;SDS011;9810;52.480;9.806;2023-04-15T11:46:04;44.30;;;22.97;;
19347;SDS011;9810;52.480;9.806;2023-04-15T11:48:33;48.93;;;24.03;;
19347;SDS011;9810;52.480;9.806;2023-04-15T11:51:04;46.23;;;24.57;;
19347;SDS011;9810;52.480;9.806;2023-04-15T11:53:36;43.33;;;23.50;;
19347;SDS011;9810;52.480;9.806;2023-04-15T11:56:05;41.20;;;22.93;;
19347;SDS011;9810;52.480;9.806;2023-04-15T11:58:33;47.03;;;24.27;;
19347;SDS011;9810;52.480;9.806;2023-04-15T12:01:03;50.83;;;26.07;;
19347;SDS011;9810;52.480;9.806;2023-04-15T12:03:35;46.90;;;23.83;;
19347;SDS011;9810;52.480;9.806;2023-04-15T12:06:30;46.83;;;24.17;;
19347;SDS011;9810;52.480;9.806;2023-04-15T12:09:08;46.80;;;25.37;;
19347;SDS011;9810;52.480;9.806;2023-04-15T12:11:41;55.00;;;26.37;;
19347;SDS011;9810;52.480;9.806;2023-04-15T12:14:18;53.47;;;25.53;;
19347;SDS011;9810;52.480;9.806;2023-04-15T12:16:48;44.73;;;24.27;;
19347;SDS011;9810;52.480;9.806;2023-04-15T12:19:22;51.23;;;25.40;;
19347;SDS011;9810;52.480;9.806;2023-04-15T12:21:56;45.90;;;24.77;;
19347;SDS011;9810;52.480;9.806;2023-04-15T12:24:25;50.53;;;25.37;;
19347;SDS011;9810;52.480;9.806;2023-04-15T12:26:53;54.87;;;24.40;;
19347;SDS011;9810;52.480;9.806;2023-04-15T12:29:24;48.30;;;24.80;;
19347;SDS011;9810;52.480;9.806;2023-04-15T12:31:53;51.13;;;24.93;;
19347;SDS011;9810;52.480;9.806;2023-04-15T12:34:27;44.73;;;22.20;;
19347;SDS011;9810;52.480;9.806;2023-04-15T12:36:58;38.77;;;22.40;;
19347;SDS011;9810;52.480;9.806;2023-04-15T12:39:27;41.87;;;23.47;;
19347;SDS011;9810;52.480;9.806;2023-04-15T12:41:56;41.83;;;23.03;;
19347;SDS011;9810;52.480;9.806;2023-04-15T12:44:24;42.97;;;23.27;;
19347;SDS011;9810;52.480;9.806;2023-04-15T12:46:51;36.97;;;21.43;;
19347;SDS011;9810;52.480;9.806;2023-04-15T12:49:19;44.40;;;24.00;;
19347;SDS011;9810;52.480;9.806;2023-04-15T12:51:47;39.93;;;22.73;;
19347;SDS011;9810;52.480;9.806;2023-04-15T12:54:17;41.07;;;22.20;;
19347;SDS011;9810;52.480;9.806;2023-04-15T12:56:44;39.73;;;21.30;;
19347;SDS011;9810;52.480;9.806;2023-04-15T12:59:12;35.63;;;20.83;;
19347;SDS011;9810;52.480;9.806;2023-04-15T13:01:40;39.23;;;21.90;;
19347;SDS011;9810;52.480;9.806;2023-04-15T13:04:10;42.87;;;23.00;;
19347;SDS011;9810;52.480;9.806;2023-04-15T13:06:37;38.53;;;21.50;;
19347;SDS011;9810;52.480;9.806;2023-04-15T13:09:05;35.47;;;21.07;;
19347;SDS011;9810;52.480;9.806;2023-04-15T13:11:34;37.27;;;20.37;;
19347;SDS011;9810;52.480;9.806;2023-04-15T13:14:02;34.67;;;21.13;;
19347;SDS011;9810;52.480;9.806;2023-04-15T13:16:30;32.13;;;19.70;;
19347;SDS011;9810;52.480;9.806;2023-04-15T13:18:57;33.87;;;19.13;;
19347;SDS011;9810;52.480;9.806;2023-04-15T13:21:25;37.07;;;20.50;;
19347;SDS011;9810;52.480;9.806;2023-04-15T13:23:53;35.90;;;20.30;;
19347;SDS011;9810;52.480;9.806;2023-04-15T13:26:20;32.80;;;18.73;;
19347;SDS011;9810;52.480;9.806;2023-04-15T13:28:49;33.53;;;18.83;;
19347;SDS011;9810;52.480;9.806;2023-04-15T13:31:17;28.20;;;18.70;;
19347;SDS011;9810;52.480;9.806;2023-04-15T13:33:44;27.30;;;17.23;;
19347;SDS011;9810;52.480;9.806;2023-04-15T13:36:11;27.10;;;17.63;;
19347;SDS011;9810;52.480;9.806;2023-04-15T13:38:38;28.40;;;16.90;;
19347;SDS011;9810;52.480;9.806;2023-04-15T13:41:06;28.13;;;16.87;;
19347;SDS011;9810;52.480;9.806;2023-04-15T13:43:33;25.93;;;16.00;;
19347;SDS011;9810;52.480;9.806;2023-04-15T13:46:02;28.27;;;16.93;;
19347;SDS011;9810;52.480;9.806;2023-04-15T13:48:29;24.30;;;16.63;;
19347;SDS011;9810;52.480;9.806;2023-04-15T13:50:57;24.80;;;14.67;;
19347;SDS011;9810;52.480;9.806;2023-04-15T13:53:24;23.10;;;14.43;;
19347;SDS011;9810;52.480;9.806;2023-04-15T13:55:51;24.10;;;15.53;;
19347;SDS011;9810;52.480;9.806;2023-04-15T13:58:19;29.10;;;16.77;;
19347;SDS011;9810;52.480;9.806;2023-04-15T14:00:46;25.03;;;15.07;;
19347;SDS011;9810;52.480;9.806;2023-04-15T14:03:15;22.63;;;14.63;;
19347;SDS011;9810;52.480;9.806;2023-04-15T14:05:42;21.77;;;14.87;;
19347;SDS011;9810;52.480;9.806;2023-04-15T14:08:10;22.57;;;15.47;;
19347;SDS011;9810;52.480;9.806;2023-04-15T14:10:38;19.63;;;14.33;;
19347;SDS011;9810;52.480;9.806;2023-04-15T14:13:05;23.02;;;16.63;;
19347;SDS011;9810;52.480;9.806;2023-04-15T14:15:33;21.33;;;13.80;;
19347;SDS011;9810;52.480;9.806;2023-04-15T14:18:00;20.47;;;13.77;;
19347;SDS011;9810;52.480;9.806;2023-04-15T14:20:29;18.73;;;12.80;;
19347;SDS011;9810;52.480;9.806;2023-04-15T14:22:56;19.97;;;13.40;;
19347;SDS011;9810;52.480;9.806;2023-04-15T14:25:24;19.70;;;13.33;;
19347;SDS011;9810;52.480;9.806;2023-04-15T14:27:52;22.77;;;13.37;;
19347;SDS011;9810;52.480;9.806;2023-04-15T14:30:19;19.43;;;14.17;;
19347;SDS011;9810;52.480;9.806;2023-04-15T14:32:47;20.07;;;14.00;;
19347;SDS011;9810;52.480;9.806;2023-04-15T14:35:14;21.70;;;13.40;;
19347;SDS011;9810;52.480;9.806;2023-04-15T14:37:43;19.33;;;12.53;;
19347;SDS011;9810;52.480;9.806;2023-04-15T14:40:10;16.73;;;12.17;;
19347;SDS011;9810;52.480;9.806;2023-04-15T14:42:37;17.47;;;12.93;;
19347;SDS011;9810;52.480;9.806;2023-04-15T14:45:05;17.97;;;12.17;;
19347;SDS011;9810;52.480;9.806;2023-04-15T14:47:33;20.27;;;12.20;;
19347;SDS011;9810;52.480;9.806;2023-04-15T14:50:01;19.00;;;12.53;;
19347;SDS011;9810;52.480;9.806;2023-04-15T14:52:29;17.33;;;11.20;;
19347;SDS011;9810;52.480;9.806;2023-04-15T14:54:58;16.67;;;11.60;;
19347;SDS011;9810;52.480;9.806;2023-04-15T14:57:25;17.77;;;11.50;;
19347;SDS011;9810;52.480;9.806;2023-04-15T14:59:53;15.97;;;11.60;;